Time;durP1;ratioP1;P1;durP2;ratioP2;P2;SDS_P1;SDS_P2;PMS_P1;PMS_P2;Temp;Humidity;BMP_temperature;BMP_pressure;BME280_temperature;BME280_humidity;BME280_pressure;Samples;Min_cycle;Max_cycle;Signal;HPM_P1;HPM_P2
2022/09/14 00:01:26;;;;;;;14.45;12.00;;;19.30;99.90;;;;;;5020817;28;20104;-57
2022/09/14 00:04:17;;;;;;;14.57;11.80;;;19.30;99.90;;;;;;5023051;28;20038;-57
2022/09/14 00:07:03;;;;;;;14.13;12.65;;;19.20;99.90;;;;;;5028814;28;20029;-55
2022/09/14 00:09:51;;;;;;;13.18;11.98;;;19.20;99.90;;;;;;5022951;28;20037;-53
2022/09/14 00:12:37;;;;;;;16.38;14.55;;;19.20;99.90;;;;;;5024006;28;20022;-53
2022/09/14 00:15:23;;;;;;;13.88;12.52;;;19.20;99.90;;;;;;5028538;28;20029;-53
2022/09/14 00:18:09;;;;;;;14.93;12.75;;;19.10;99.90;;;;;;5016211;28;20056;-50
2022/09/14 00:21:04;;;;;;;12.38;11.15;;;19.00;99.90;;;;;;4996343;28;20034;-54
2022/09/14 00:23:50;;;;;;;11.73;10.53;;;18.80;99.90;;;;;;5029516;28;20117;-50
2022/09/14 00:26:36;;;;;;;12.85;11.38;;;18.80;99.90;;;;;;5029379;28;20041;-50
2022/09/14 00:29:22;;;;;;;11.52;10.27;;;18.80;99.90;;;;;;5030675;28;20191;-51
2022/09/14 00:32:08;;;;;;;10.80;9.50;;;18.70;99.90;;;;;;5029938;28;20075;-54
2022/09/14 00:34:54;;;;;;;11.77;9.93;;;18.70;99.90;;;;;;5026695;28;20026;-54
2022/09/14 00:37:40;;;;;;;13.45;10.38;;;18.70;99.90;;;;;;5028786;28;20091;-53
2022/09/14 00:40:26;;;;;;;12.85;10.35;;;18.30;99.90;;;;;;5029215;28;20036;-54
2022/09/14 00:43:14;;;;;;;13.13;10.35;;;18.30;99.90;;;;;;5029276;28;20033;-52
2022/09/14 00:46:03;;;;;;;11.07;9.55;;;18.30;99.90;;;;;;5028979;28;20029;-53
2022/09/14 00:48:49;;;;;;;12.13;10.07;;;18.20;99.90;;;;;;5029492;28;20478;-55
2022/09/14 00:51:42;;;;;;;11.85;9.07;;;18.20;99.90;;;;;;5029919;28;20032;-57
2022/09/14 00:54:28;;;;;;;9.77;8.75;;;18.10;99.90;;;;;;5029359;28;20396;-53
2022/09/14 00:57:16;;;;;;;9.13;7.55;;;18.20;99.90;;;;;;5030616;28;20410;-52
2022/09/14 01:00:08;;;;;;;10.38;7.63;;;18.10;99.90;;;;;;5021535;28;20052;-56
2022/09/14 01:02:54;;;;;;;10.48;7.75;;;18.10;99.90;;;;;;5032242;28;20550;-54
2022/09/14 01:05:53;;;;;;;11.00;7.30;;;18.00;99.90;;;;;;5033932;28;20081;-57
2022/09/14 01:08:59;;;;;;;12.38;7.18;;;17.90;99.90;;;;;;5032591;28;20026;-55
2022/09/14 01:12:21;;;;;;;8.98;7.05;;;18.00;99.90;;;;;;5032811;28;20029;-53
2022/09/14 01:15:23;;;;;;;8.18;6.28;;;17.80;99.90;;;;;;5032865;28;20026;-55
2022/09/14 01:18:19;;;;;;;10.27;5.40;;;17.90;99.90;;;;;;5032623;28;20041;-53
2022/09/14 01:21:23;;;;;;;11.00;6.40;;;17.80;99.90;;;;;;5031863;28;20026;-54
2022/09/14 01:24:26;;;;;;;8.65;5.43;;;17.80;99.90;;;;;;5032720;28;20029;-56
2022/09/14 01:27:26;;;;;;;7.47;5.60;;;17.80;99.90;;;;;;5032434;28;20079;-55
2022/09/14 01:30:22;;;;;;;10.02;5.45;;;17.90;99.90;;;;;;5033791;28;20021;-50
2022/09/14 01:33:24;;;;;;;9.98;5.45;;;17.80;99.90;;;;;;5032556;28;20061;-55
2022/09/14 01:36:11;;;;;;;10.68;5.40;;;17.90;99.90;;;;;;5033646;28;20065;-54
2022/09/14 01:38:58;;;;;;;9.15;5.05;;;17.90;99.90;;;;;;5032243;28;20568;-56
2022/09/14 01:41:46;;;;;;;10.75;4.95;;;17.90;99.90;;;;;;5013266;28;20421;-53
2022/09/14 01:44:36;;;;;;;13.10;5.93;;;17.90;99.90;;;;;;5020079;28;20049;-54
2022/09/14 01:47:48;;;;;;;8.88;5.00;;;17.80;99.90;;;;;;5032520;28;20025;-54
2022/09/14 01:50:46;;;;;;;11.65;4.65;;;17.80;99.90;;;;;;5018909;28;20041;-53
2022/09/14 01:53:51;;;;;;;10.65;5.07;;;17.70;99.90;;;;;;5018235;28;20037;-55
2022/09/14 01:56:57;;;;;;;10.90;4.80;;;17.70;99.90;;;;;;5031810;28;20045;-56
2022/09/14 01:59:45;;;;;;;9.27;4.30;;;17.70;99.90;;;;;;5032471;28;20037;-52
2022/09/14 02:02:43;;;;;;;10.40;5.07;;;17.60;99.90;;;;;;5031058;28;20026;-54
2022/09/14 02:05:54;;;;;;;12.60;4.82;;;17.60;99.90;;;;;;5017771;28;20036;-53
2022/09/14 02:08:40;;;;;;;11.20;4.30;;;17.60;99.90;;;;;;5031549;28;20561;-51
2022/09/14 02:11:26;;;;;;;9.73;4.03;;;17.60;99.90;;;;;;5011162;28;20534;-55
2022/09/14 02:14:12;;;;;;;9.43;4.38;;;17.60;99.90;;;;;;5031890;28;20064;-56
2022/09/14 02:16:58;;;;;;;9.90;4.40;;;17.70;99.90;;;;;;5031616;28;20030;-51
2022/09/14 02:19:57;;;;;;;6.47;4.00;;;17.70;99.90;;;;;;5031534;28;20025;-52
2022/09/14 02:22:43;;;;;;;8.52;4.13;;;17.70;99.90;;;;;;5031148;28;20362;-53
2022/09/14 02:25:30;;;;;;;8.57;4.85;;;17.70;99.90;;;;;;5031393;28;20028;-53
2022/09/14 02:28:17;;;;;;;10.35;4.60;;;17.70;99.90;;;;;;5025749;28;20093;-57
2022/09/14 02:31:14;;;;;;;8.07;4.45;;;17.80;99.90;;;;;;5032416;28;20030;-53
2022/09/14 02:34:20;;;;;;;8.98;4.32;;;17.70;99.90;;;;;;5032690;28;20571;-51
2022/09/14 02:37:25;;;;;;;7.50;4.53;;;17.70;99.90;;;;;;5011388;28;20041;-55
2022/09/14 02:40:29;;;;;;;9.07;5.43;;;17.70;99.90;;;;;;5006651;28;20034;-52
2022/09/14 02:43:34;;;;;;;8.10;4.90;;;17.70;99.90;;;;;;5030159;28;20080;-51
2022/09/14 02:46:57;;;;;;;11.30;4.88;;;17.70;99.90;;;;;;5031084;28;20115;-52
2022/09/14 02:50:11;;;;;;;7.68;4.43;;;17.70;99.90;;;;;;5032191;28;20029;-56
2022/09/14 02:53:23;;;;;;;8.27;4.20;;;17.80;99.90;;;;;;5032004;28;20029;-54
2022/09/14 02:56:10;;;;;;;9.40;4.40;;;17.70;99.90;;;;;;5017051;28;20082;-54
2022/09/14 02:58:56;;;;;;;9.90;4.28;;;17.80;99.90;;;;;;5031239;28;20104;-52
2022/09/14 03:01:42;;;;;;;8.38;4.20;;;17.70;99.90;;;;;;5028274;28;20025;-52
2022/09/14 03:04:28;;;;;;;6.20;3.90;;;17.60;99.90;;;;;;5024423;28;20490;-52
2022/09/14 03:07:14;;;;;;;7.88;3.90;;;17.60;99.90;;;;;;5030563;28;20525;-56
2022/09/14 03:10:00;;;;;;;8.70;4.30;;;17.60;99.90;;;;;;5030388;28;20029;-55
2022/09/14 03:12:46;;;;;;;9.20;4.78;;;17.50;99.90;;;;;;5030250;28;20026;-52
2022/09/14 03:15:32;;;;;;;8.38;4.13;;;17.50;99.90;;;;;;5030911;28;20037;-53
2022/09/14 03:18:18;;;;;;;9.32;4.68;;;17.50;99.90;;;;;;5030100;28;20498;-52
2022/09/14 03:21:10;;;;;;;9.57;6.03;;;17.50;99.90;;;;;;5011998;28;20402;-55
2022/09/14 03:23:57;;;;;;;8.85;4.45;;;17.40;99.90;;;;;;5031457;28;20033;-50
2022/09/14 03:26:44;;;;;;;10.15;4.90;;;17.40;99.90;;;;;;5016373;28;20543;-51
2022/09/14 03:29:30;;;;;;;10.35;5.80;;;17.40;99.90;;;;;;5029526;28;20068;-56
2022/09/14 03:32:16;;;;;;;10.60;4.30;;;17.40;99.90;;;;;;5030600;28;20057;-57
2022/09/14 03:35:02;;;;;;;9.55;4.88;;;17.40;99.90;;;;;;5029764;28;20057;-53
2022/09/14 03:37:49;;;;;;;9.65;4.82;;;17.30;99.90;;;;;;5029862;28;20652;-56
2022/09/14 03:40:35;;;;;;;12.52;4.85;;;17.30;99.90;;;;;;5029855;28;20034;-56
2022/09/14 03:43:21;;;;;;;8.25;3.72;;;17.40;99.90;;;;;;5029581;28;20033;-53
2022/09/14 03:46:09;;;;;;;10.73;3.72;;;17.40;99.90;;;;;;5016386;28;20032;-54
2022/09/14 03:48:55;;;;;;;11.95;4.88;;;17.30;99.90;;;;;;5016250;28;20033;-55
2022/09/14 03:51:41;;;;;;;8.18;4.65;;;17.30;99.90;;;;;;5029344;28;20026;-53
2022/09/14 03:54:27;;;;;;;8.15;3.70;;;17.20;99.90;;;;;;5029562;28;20029;-56
2022/09/14 03:57:15;;;;;;;8.32;4.13;;;17.10;99.90;;;;;;5029826;28;20037;-57
2022/09/14 04:00:01;;;;;;;17.50;4.32;;;17.20;99.90;;;;;;5030967;28;20026;-56
2022/09/14 04:02:47;;;;;;;8.55;3.60;;;17.20;99.90;;;;;;5029549;28;20037;-55
2022/09/14 04:05:33;;;;;;;12.90;4.50;;;17.30;99.90;;;;;;5029814;28;20064;-50
2022/09/14 04:08:19;;;;;;;12.25;5.10;;;17.20;99.90;;;;;;5029645;28;20022;-55
2022/09/14 04:11:08;;;;;;;8.25;5.25;;;17.20;99.90;;;;;;5028976;28;20046;-53
2022/09/14 04:13:53;;;;;;;9.82;4.28;;;17.20;99.90;;;;;;5019866;28;20033;-56
2022/09/14 04:16:40;;;;;;;8.70;4.63;;;17.10;99.90;;;;;;5029280;28;20076;-55
2022/09/14 04:19:27;;;;;;;9.63;4.50;;;17.20;99.90;;;;;;5029125;28;20041;-53
2022/09/14 04:22:13;;;;;;;13.55;4.50;;;17.20;99.90;;;;;;5028588;28;20572;-55
2022/09/14 04:24:59;;;;;;;10.80;4.55;;;17.20;99.90;;;;;;5029062;28;20505;-55
2022/09/14 04:27:45;;;;;;;11.32;4.80;;;17.30;99.90;;;;;;5029395;28;20041;-55
2022/09/14 04:30:30;;;;;;;7.82;4.07;;;17.20;99.90;;;;;;5028582;28;20029;-54
2022/09/14 04:33:16;;;;;;;11.45;4.28;;;17.30;99.90;;;;;;5029818;28;20044;-53
2022/09/14 04:36:05;;;;;;;9.48;4.43;;;17.20;99.90;;;;;;5033010;28;20087;-55
2022/09/14 04:38:53;;;;;;;12.82;7.72;;;17.20;99.90;;;;;;5033179;28;20045;-55
2022/09/14 04:41:39;;;;;;;12.30;5.05;;;17.20;99.90;;;;;;5032632;28;20037;-56
2022/09/14 04:44:25;;;;;;;16.25;6.07;;;17.10;99.90;;;;;;5033228;28;20049;-53
2022/09/14 04:47:11;;;;;;;11.30;4.40;;;17.10;99.90;;;;;;5033191;28;20417;-53
2022/09/14 04:49:57;;;;;;;9.75;4.55;;;17.10;99.90;;;;;;5019285;28;20021;-56
2022/09/14 04:52:43;;;;;;;13.77;5.10;;;17.10;99.90;;;;;;5033413;28;20174;-53
2022/09/14 04:55:29;;;;;;;12.38;4.50;;;17.10;99.90;;;;;;5021084;28;20248;-53
2022/09/14 04:58:15;;;;;;;11.05;4.15;;;17.10;99.90;;;;;;5033142;28;20072;-54
2022/09/14 05:01:09;;;;;;;7.90;4.07;;;17.00;99.90;;;;;;5032136;28;20383;-53
2022/09/14 05:03:56;;;;;;;8.43;3.70;;;17.10;99.90;;;;;;5033950;28;20037;-54
2022/09/14 05:06:43;;;;;;;9.60;4.03;;;17.00;99.70;;;;;;5033337;28;20041;-54
2022/09/14 05:09:29;;;;;;;10.18;4.03;;;17.00;99.60;;;;;;5032919;28;20115;-54
2022/09/14 05:12:15;;;;;;;11.80;4.63;;;17.00;99.00;;;;;;5031661;28;20025;-53
2022/09/14 05:15:01;;;;;;;11.00;4.20;;;17.00;99.10;;;;;;5031994;28;20422;-56
2022/09/14 05:17:47;;;;;;;7.60;3.65;;;17.00;99.00;;;;;;5013524;28;20025;-53
2022/09/14 05:20:33;;;;;;;4.65;2.88;;;16.90;98.80;;;;;;5030856;28;20025;-52
2022/09/14 05:23:19;;;;;;;7.63;3.47;;;16.90;98.60;;;;;;5032937;28;20583;-55
2022/09/14 05:26:06;;;;;;;9.90;3.55;;;16.90;98.60;;;;;;5032779;28;20113;-57
2022/09/14 05:28:54;;;;;;;9.38;3.67;;;17.00;98.40;;;;;;5033093;28;20109;-51
2022/09/14 05:31:40;;;;;;;10.07;3.85;;;17.00;98.30;;;;;;5031853;28;20426;-54
2022/09/14 05:34:26;;;;;;;9.38;3.60;;;17.00;98.20;;;;;;5032564;28;20116;-56
2022/09/14 05:37:12;;;;;;;8.82;2.97;;;17.10;98.10;;;;;;5032154;28;20041;-54
2022/09/14 05:39:58;;;;;;;7.28;3.33;;;17.10;97.90;;;;;;5018081;28;20103;-55
2022/09/14 05:42:44;;;;;;;10.32;4.30;;;17.10;97.60;;;;;;5031621;28;20030;-56
2022/09/14 05:45:30;;;;;;;11.50;5.13;;;17.10;97.60;;;;;;5018666;28;20805;-53
2022/09/14 05:48:17;;;;;;;7.15;3.55;;;17.10;98.10;;;;;;5018780;28;20767;-55
2022/09/14 05:51:08;;;;;;;12.10;3.75;;;17.20;98.20;;;;;;5013274;28;20034;-55
2022/09/14 05:53:56;;;;;;;10.98;5.30;;;17.20;98.30;;;;;;5031284;28;20033;-54
2022/09/14 05:56:42;;;;;;;10.77;4.10;;;17.20;98.90;;;;;;5025128;28;20053;-56
2022/09/14 05:59:30;;;;;;;10.00;4.25;;;17.10;98.90;;;;;;5017820;28;20057;-55
2022/09/14 06:02:16;;;;;;;8.75;4.70;;;17.20;98.70;;;;;;5031149;28;20431;-53
2022/09/14 06:05:02;;;;;;;9.45;3.50;;;17.10;98.70;;;;;;5031106;28;20026;-55
2022/09/14 06:07:52;;;;;;;9.18;3.72;;;17.10;98.90;;;;;;5032070;28;20072;-56
2022/09/14 06:10:38;;;;;;;12.00;4.15;;;17.10;98.80;;;;;;5030894;28;20091;-54
2022/09/14 06:13:24;;;;;;;10.60;4.30;;;17.20;98.70;;;;;;5017030;28;20036;-51
2022/09/14 06:16:12;;;;;;;13.52;4.00;;;17.30;98.00;;;;;;5017110;28;20036;-56
2022/09/14 06:18:59;;;;;;;8.93;2.60;;;17.30;97.60;;;;;;5031122;28;20037;-54
2022/09/14 06:21:45;;;;;;;10.82;3.10;;;17.40;96.90;;;;;;5030824;28;20505;-53
2022/09/14 06:24:31;;;;;;;9.15;3.13;;;17.30;96.60;;;;;;5031377;28;20123;-57
2022/09/14 06:27:17;;;;;;;10.27;3.22;;;17.30;96.50;;;;;;5031534;28;20069;-56
2022/09/14 06:30:04;;;;;;;7.40;3.33;;;17.20;96.70;;;;;;5030288;28;20036;-57
2022/09/14 06:32:50;;;;;;;6.25;4.20;;;17.10;96.70;;;;;;5014738;28;20041;-53
2022/09/14 06:35:36;;;;;;;9.45;3.38;;;17.10;96.90;;;;;;5028878;28;20108;-55
2022/09/14 06:38:22;;;;;;;7.38;3.08;;;17.10;96.70;;;;;;5030402;28;20057;-52
2022/09/14 06:41:11;;;;;;;12.82;3.80;;;17.10;96.50;;;;;;5031357;28;20032;-56
2022/09/14 06:44:00;;;;;;;11.88;4.15;;;17.00;96.60;;;;;;5030423;28;20071;-52
2022/09/14 06:46:46;;;;;;;15.15;3.75;;;17.00;97.00;;;;;;5030487;28;20021;-54
2022/09/14 06:49:32;;;;;;;9.73;3.17;;;17.00;96.80;;;;;;5030877;28;20033;-55
2022/09/14 06:52:18;;;;;;;11.40;3.33;;;17.10;96.90;;;;;;5031359;28;20037;-52
2022/09/14 06:55:05;;;;;;;11.70;3.92;;;17.20;97.10;;;;;;5028680;28;20081;-52
2022/09/14 06:57:51;;;;;;;7.18;3.17;;;17.20;96.90;;;;;;5026119;28;20026;-50
2022/09/14 07:00:37;;;;;;;12.73;7.18;;;17.00;97.10;;;;;;5010365;28;20029;-54
2022/09/14 07:03:23;;;;;;;13.38;4.80;;;16.90;97.40;;;;;;5023387;28;20049;-54
2022/09/14 07:06:12;;;;;;;9.73;3.85;;;16.90;97.60;;;;;;5026586;28;20525;-49
2022/09/14 07:09:02;;;;;;;12.77;4.07;;;17.00;97.70;;;;;;5025699;28;20056;-56
2022/09/14 07:11:48;;;;;;;9.23;3.78;;;17.10;97.50;;;;;;5026274;28;20032;-55
2022/09/14 07:14:35;;;;;;;8.38;3.63;;;17.00;97.80;;;;;;5022547;28;20047;-54
2022/09/14 07:17:21;;;;;;;13.32;3.88;;;17.00;97.90;;;;;;5022357;28;20084;-51
2022/09/14 07:20:07;;;;;;;12.95;3.75;;;17.10;97.80;;;;;;5025284;28;20065;-52
2022/09/14 07:22:54;;;;;;;14.13;4.78;;;17.00;97.90;;;;;;5023497;28;20025;-53
2022/09/14 07:25:41;;;;;;;7.38;3.47;;;17.00;97.70;;;;;;5021410;28;20026;-54
2022/09/14 07:28:27;;;;;;;5.93;3.40;;;17.10;97.60;;;;;;5014390;28;20052;-54
2022/09/14 07:31:18;;;;;;;14.20;3.63;;;17.20;97.70;;;;;;5002913;28;20034;-56
2022/09/14 07:34:04;;;;;;;7.43;3.30;;;17.20;97.50;;;;;;5030848;28;20022;-54
2022/09/14 07:36:50;;;;;;;11.18;3.45;;;17.30;97.40;;;;;;5029975;28;20124;-54
2022/09/14 07:39:36;;;;;;;8.90;3.22;;;17.30;97.10;;;;;;5031334;28;20064;-53
2022/09/14 07:42:22;;;;;;;11.15;3.42;;;17.40;97.20;;;;;;5029869;28;20068;-54
2022/09/14 07:45:08;;;;;;;8.07;3.05;;;17.40;97.20;;;;;;5030226;28;20078;-53
2022/09/14 07:47:55;;;;;;;11.40;3.40;;;17.40;97.10;;;;;;5016249;28;20124;-57
2022/09/14 07:50:41;;;;;;;13.77;4.15;;;17.50;96.90;;;;;;5023423;28;20037;-52
2022/09/14 07:53:27;;;;;;;12.20;3.30;;;17.50;97.00;;;;;;5029703;28;20030;-50
2022/09/14 07:56:15;;;;;;;6.07;2.78;;;17.50;96.50;;;;;;5029255;28;20121;-51
2022/09/14 07:59:03;;;;;;;8.65;2.90;;;17.60;96.20;;;;;;5016998;28;20040;-55
2022/09/14 08:01:50;;;;;;;12.43;3.40;;;17.50;95.90;;;;;;5028420;28;20112;-52
2022/09/14 08:04:39;;;;;;;9.93;3.00;;;17.50;96.20;;;;;;5016489;28;20091;-52
2022/09/14 08:07:25;;;;;;;7.78;2.97;;;17.60;96.30;;;;;;5016091;28;20025;-56
2022/09/14 08:10:12;;;;;;;6.90;2.75;;;17.70;96.00;;;;;;5029204;28;20108;-57
2022/09/14 08:12:58;;;;;;;4.10;2.70;;;17.70;95.60;;;;;;5029892;28;20490;-55
2022/09/14 08:15:44;;;;;;;8.02;2.70;;;17.60;95.70;;;;;;5016199;28;20034;-54
2022/09/14 08:18:31;;;;;;;6.70;2.75;;;17.60;95.80;;;;;;5023840;28;20506;-55
2022/09/14 08:21:17;;;;;;;11.30;3.53;;;17.70;95.70;;;;;;5031565;28;20075;-53
2022/09/14 08:24:03;;;;;;;6.55;2.60;;;17.70;95.50;;;;;;5029697;28;20037;-54
2022/09/14 08:26:49;;;;;;;8.07;3.35;;;17.70;95.40;;;;;;5029025;28;20513;-55
2022/09/14 08:29:35;;;;;;;7.55;3.83;;;17.60;95.60;;;;;;5029170;28;20617;-56
2022/09/14 08:32:21;;;;;;;6.75;3.35;;;17.50;95.90;;;;;;5028545;28;20034;-56
2022/09/14 08:35:08;;;;;;;8.30;3.05;;;17.50;96.10;;;;;;5011164;28;20037;-57
2022/09/14 08:37:54;;;;;;;6.57;2.90;;;17.60;96.10;;;;;;5013624;28;20038;-54
2022/09/14 08:40:44;;;;;;;13.27;2.88;;;17.70;96.10;;;;;;5029134;28;20129;-50
2022/09/14 08:43:31;;;;;;;7.82;2.50;;;17.80;96.20;;;;;;5029335;28;20063;-53
2022/09/14 08:46:26;;;;;;;7.22;3.03;;;17.90;96.00;;;;;;5029324;28;20028;-49
2022/09/14 08:49:50;;;;;;;12.38;3.90;;;18.00;96.00;;;;;;5030021;28;20036;-52
2022/09/14 08:52:45;;;;;;;5.95;2.60;;;18.10;95.60;;;;;;5030092;28;20021;-49
2022/09/14 08:55:43;;;;;;;5.00;2.92;;;18.10;95.50;;;;;;4995834;28;20040;-50
2022/09/14 08:58:53;;;;;;;8.57;3.20;;;18.10;95.40;;;;;;5023271;28;20079;-54
2022/09/14 09:01:48;;;;;;;9.55;3.30;;;18.20;95.50;;;;;;5030042;28;20461;-56
2022/09/14 09:04:37;;;;;;;;;;;18.40;96.00;;;;;;5030399;28;20029;-54
2022/09/14 09:07:34;;;;;;;11.60;3.95;;;18.50;95.30;;;;;;5011472;28;19914;-54
2022/09/14 09:10:21;;;;;;;9.43;3.40;;;18.60;95.30;;;;;;5011381;28;20033;-51
2022/09/14 09:13:14;;;;;;;9.73;3.67;;;18.70;95.90;;;;;;5028608;28;20091;-50
2022/09/14 09:16:03;;;;;;;11.40;3.83;;;18.90;95.80;;;;;;5029415;28;20071;-50
2022/09/14 09:19:01;;;;;;;8.68;3.03;;;19.00;95.50;;;;;;5029540;28;20026;-52
2022/09/14 09:21:48;;;;;;;8.95;2.97;;;19.10;95.20;;;;;;5031966;28;20037;-50
2022/09/14 09:24:41;;;;;;;5.68;3.42;;;18.90;94.60;;;;;;5032997;28;20460;-52
2022/09/14 09:27:27;;;;;;;6.35;3.30;;;18.80;94.40;;;;;;5015332;28;20025;-53
2022/09/14 09:30:14;;;;;;;8.38;3.03;;;18.60;94.70;;;;;;5032146;28;20093;-53
2022/09/14 09:33:00;;;;;;;8.00;3.08;;;18.60;94.90;;;;;;5033393;28;20510;-52
2022/09/14 09:35:47;;;;;;;5.40;3.08;;;18.50;94.90;;;;;;5031961;28;20029;-57
2022/09/14 09:38:33;;;;;;;5.60;2.88;;;18.40;95.10;;;;;;5031603;28;20068;-53
2022/09/14 09:41:23;;;;;;;9.70;3.65;;;18.50;95.20;;;;;;5030319;28;20615;-54
2022/09/14 09:44:09;;;;;;;15.30;3.83;;;18.50;95.20;;;;;;5029127;28;20088;-53
2022/09/14 09:46:59;;;;;;;9.70;3.78;;;18.50;95.20;;;;;;5013923;28;20049;-56
2022/09/14 09:49:55;;;;;;;9.48;3.63;;;18.50;95.00;;;;;;5032429;28;20095;-51
2022/09/14 09:52:57;;;;;;;8.90;3.50;;;18.50;94.90;;;;;;5032921;28;20120;-55
2022/09/14 09:55:50;;;;;;;8.48;4.10;;;18.50;95.30;;;;;;5032878;28;20033;-54
2022/09/14 09:58:37;;;;;;;7.70;2.95;;;18.30;95.40;;;;;;5018667;28;20464;-55
2022/09/14 10:01:29;;;;;;;8.93;2.70;;;18.20;95.70;;;;;;5032659;28;20512;-51
2022/09/14 10:04:17;;;;;;;9.00;3.30;;;18.00;96.10;;;;;;5032492;28;20041;-54
2022/09/14 10:07:03;;;;;;;9.68;3.42;;;18.00;96.30;;;;;;5028532;28;20029;-53
2022/09/14 10:09:56;;;;;;;6.07;3.17;;;18.10;96.60;;;;;;5031625;28;20561;-55
2022/09/14 10:12:53;;;;;;;7.38;3.33;;;18.20;97.00;;;;;;5031474;28;20033;-56
2022/09/14 10:15:40;;;;;;;30.00;16.83;;;18.30;97.40;;;;;;5014219;28;20030;-53
2022/09/14 10:18:27;;;;;;;9.77;3.70;;;18.20;97.20;;;;;;5033052;28;20033;-56
2022/09/14 10:21:22;;;;;;;8.57;4.07;;;18.10;96.80;;;;;;5031066;28;20040;-50
2022/09/14 10:24:14;;;;;;;8.00;3.75;;;18.10;97.00;;;;;;5018347;28;20148;-51
2022/09/14 10:27:00;;;;;;;10.73;4.13;;;18.10;97.20;;;;;;5017420;28;20029;-52
2022/09/14 10:29:50;;;;;;;9.52;4.20;;;18.00;97.40;;;;;;5018394;28;20034;-57
2022/09/14 10:32:39;;;;;;;10.48;3.70;;;18.00;98.00;;;;;;5030823;28;20030;-56
2022/09/14 10:35:49;;;;;;;8.82;3.03;;;17.90;98.20;;;;;;5029039;28;20025;-53
2022/09/14 10:38:51;;;;;;;7.22;3.42;;;17.90;98.30;;;;;;5011281;28;20121;-56
2022/09/14 10:42:03;;;;;;;7.35;2.90;;;17.90;98.30;;;;;;5031249;28;20029;-51
2022/09/14 10:45:43;;;;;;;5.95;3.20;;;17.80;98.50;;;;;;5032017;28;20060;-57
2022/09/14 10:48:32;;;;;;;7.93;2.67;;;17.90;98.70;;;;;;4932900;28;20062;-56
2022/09/14 10:51:28;;;;;;;9.38;3.00;;;17.90;98.90;;;;;;5011953;28;20094;-55
2022/09/14 10:54:30;;;;;;;4.93;2.80;;;17.90;98.90;;;;;;5012185;28;20108;-55
2022/09/14 10:57:19;;;;;;;5.35;3.30;;;17.90;99.00;;;;;;5024909;28;20021;-54
2022/09/14 11:00:12;;;;;;;7.00;3.33;;;18.00;99.20;;;;;;5029262;28;20028;-56
2022/09/14 11:03:29;;;;;;;9.48;3.78;;;18.00;99.40;;;;;;5030524;28;20350;-54
2022/09/14 11:06:43;;;;;;;10.13;3.55;;;18.00;99.60;;;;;;5030877;28;20025;-54
2022/09/14 11:09:59;;;;;;;12.80;3.60;;;18.00;99.50;;;;;;5031256;28;20022;-54
2022/09/14 11:12:51;;;;;;;16.42;4.70;;;18.00;99.20;;;;;;5031878;28;20026;-54
2022/09/14 11:15:48;;;;;;;12.30;5.47;;;17.90;99.10;;;;;;5031303;28;20030;-53
2022/09/14 11:18:50;;;;;;;10.43;4.22;;;17.80;99.30;;;;;;5031373;28;20022;-54
2022/09/14 11:21:51;;;;;;;6.15;3.83;;;17.70;99.70;;;;;;5034109;28;20398;-55
2022/09/14 11:24:48;;;;;;;9.02;4.22;;;17.70;99.90;;;;;;5033820;28;20029;-58
2022/09/14 11:27:47;;;;;;;6.93;3.67;;;17.70;99.90;;;;;;5019448;28;20021;-59
2022/09/14 11:30:54;;;;;;;8.32;3.40;;;17.80;99.90;;;;;;5019781;28;20504;-55
2022/09/14 11:33:51;;;;;;;7.60;3.25;;;17.90;99.90;;;;;;5039181;28;20616;-55
2022/09/14 11:36:45;;;;;;;6.82;4.00;;;17.90;99.90;;;;;;5038846;28;20040;-57
2022/09/14 11:39:52;;;;;;;8.00;4.50;;;18.00;99.90;;;;;;5036417;28;20715;-57
2022/09/14 11:43:04;;;;;;;7.07;3.78;;;18.00;99.90;;;;;;5033271;28;20057;-55
2022/09/14 11:46:05;;;;;;;10.23;3.55;;;18.00;99.90;;;;;;5032876;28;20064;-59
2022/09/14 11:49:03;;;;;;;9.20;3.72;;;18.00;99.90;;;;;;5034231;28;20044;-55
2022/09/14 11:51:57;;;;;;;7.03;3.85;;;17.90;99.90;;;;;;5030578;28;20195;-57
2022/09/14 11:54:44;;;;;;;9.55;3.78;;;18.00;99.90;;;;;;5009739;28;20367;-57
2022/09/14 11:57:32;;;;;;;9.40;3.80;;;18.00;99.90;;;;;;5029554;28;20033;-55
2022/09/14 12:00:24;;;;;;;6.70;3.20;;;18.00;99.90;;;;;;5036428;28;20101;-54
2022/09/14 12:03:15;;;;;;;13.00;4.50;;;18.00;99.90;;;;;;5030536;28;20030;-52
2022/09/14 12:06:33;;;;;;;8.98;3.88;;;18.10;99.90;;;;;;5032298;28;20036;-51
2022/09/14 12:09:20;;;;;;;5.28;3.60;;;18.20;99.90;;;;;;5012817;28;20435;-54
2022/09/14 12:12:27;;;;;;;7.22;3.20;;;18.10;99.90;;;;;;5026142;28;20025;-56
2022/09/14 12:15:25;;;;;;;10.95;3.40;;;17.80;99.90;;;;;;5017491;28;20032;-55
2022/09/14 12:18:12;;;;;;;11.43;3.75;;;17.70;99.90;;;;;;5018870;28;20025;-55
2022/09/14 12:21:25;;;;;;;8.10;3.20;;;17.50;99.90;;;;;;5028349;28;20029;-54
2022/09/14 12:24:14;;;;;;;8.77;3.20;;;17.40;99.90;;;;;;5028656;28;20438;-55
2022/09/14 12:27:22;;;;;;;15.25;4.05;;;17.40;99.90;;;;;;5028368;28;20111;-54
2022/09/14 12:30:53;;;;;;;6.55;3.58;;;17.40;99.90;;;;;;5029686;28;20035;-52
2022/09/14 12:33:40;;;;;;;5.95;3.55;;;17.50;99.90;;;;;;5030629;28;20029;-54
2022/09/14 12:36:26;;;;;;;8.55;3.13;;;17.50;99.90;;;;;;5030513;28;20056;-56
2022/09/14 12:39:32;;;;;;;7.22;3.20;;;17.60;99.90;;;;;;5029408;28;20543;-57
2022/09/14 12:42:31;;;;;;;6.15;3.25;;;17.70;99.90;;;;;;5030076;28;20035;-53
2022/09/14 12:45:49;;;;;;;5.57;3.47;;;17.90;99.90;;;;;;5029511;28;20032;-54
2022/09/14 12:48:44;;;;;;;6.80;2.90;;;18.00;99.90;;;;;;5023716;28;20033;-59
2022/09/14 12:51:46;;;;;;;4.40;2.78;;;18.00;99.90;;;;;;5023113;28;20119;-58
2022/09/14 12:55:05;;;;;;;5.30;3.10;;;18.00;99.90;;;;;;5031136;28;20034;-63
2022/09/14 12:58:04;;;;;;;7.53;3.30;;;18.10;99.90;;;;;;5034291;28;20450;-55
2022/09/14 13:01:09;;;;;;;5.47;3.00;;;18.30;99.90;;;;;;5033303;28;20025;-57
2022/09/14 13:03:57;;;;;;;7.50;3.22;;;18.40;99.90;;;;;;5013505;28;20040;-65
2022/09/14 13:06:45;;;;;;;8.45;3.50;;;18.50;99.90;;;;;;5015595;28;20032;-64
2022/09/14 13:09:32;;;;;;;7.82;3.25;;;18.50;99.90;;;;;;5034433;28;20076;-57
2022/09/14 13:12:29;;;;;;;6.70;3.40;;;18.50;99.90;;;;;;5046035;28;20061;-58
2022/09/14 13:15:20;;;;;;;7.78;3.33;;;18.50;99.90;;;;;;5033849;28;20096;-55
2022/09/14 13:18:26;;;;;;;9.02;3.58;;;18.40;99.90;;;;;;5032524;28;20497;-57
2022/09/14 13:21:23;;;;;;;9.48;3.58;;;18.20;99.90;;;;;;5028938;28;20421;-60
2022/09/14 13:24:24;;;;;;;8.88;3.47;;;18.20;99.90;;;;;;5032363;28;20102;-58
2022/09/14 13:27:30;;;;;;;4.70;2.70;;;18.10;99.90;;;;;;5032760;28;20028;-59
2022/09/14 13:30:20;;;;;;;6.45;3.17;;;17.90;99.90;;;;;;5028191;28;20124;-60
2022/09/14 13:33:15;;;;;;;8.05;3.20;;;17.70;99.90;;;;;;5032356;28;20040;-60
2022/09/14 13:36:03;;;;;;;6.78;2.83;;;17.60;99.90;;;;;;5033036;28;20485;-55
2022/09/14 13:38:49;;;;;;;8.73;3.55;;;17.60;99.90;;;;;;5032371;28;20056;-55
2022/09/14 13:41:43;;;;;;;7.97;3.53;;;17.60;99.90;;;;;;5018520;28;20033;-57
2022/09/14 13:44:44;;;;;;;8.50;3.60;;;17.70;99.90;;;;;;5032074;28;20579;-55
2022/09/14 13:47:30;;;;;;;9.15;3.65;;;17.70;99.90;;;;;;5013832;28;20065;-58
2022/09/14 13:50:16;;;;;;;6.43;3.45;;;17.80;99.90;;;;;;5025510;28;20030;-55
2022/09/14 13:53:02;;;;;;;4.97;3.40;;;17.90;99.90;;;;;;5033278;28;20639;-56
2022/09/14 13:55:48;;;;;;;8.80;4.22;;;18.00;99.90;;;;;;5022979;28;20068;-59
2022/09/14 13:58:35;;;;;;;8.95;3.90;;;18.10;99.90;;;;;;5016300;28;20030;-54
2022/09/14 14:01:28;;;;;;;9.32;3.70;;;18.00;99.90;;;;;;5011810;28;20490;-61
2022/09/14 14:04:36;;;;;;;9.02;3.67;;;18.10;99.90;;;;;;5027261;28;20026;-59
2022/09/14 14:07:29;;;;;;;8.23;4.32;;;18.10;99.90;;;;;;5030466;28;20137;-57
2022/09/14 14:10:26;;;;;;;8.43;3.80;;;17.90;99.90;;;;;;5009095;28;20040;-59
2022/09/14 14:13:22;;;;;;;10.38;3.97;;;17.90;99.90;;;;;;5015410;28;20026;-57
2022/09/14 14:16:27;;;;;;;10.18;3.88;;;17.80;99.90;;;;;;5010427;28;20562;-58
2022/09/14 14:19:27;;;;;;;9.18;4.03;;;17.80;99.90;;;;;;5006738;28;20124;-57
2022/09/14 14:22:13;;;;;;;8.23;3.50;;;17.70;99.90;;;;;;5029500;28;20506;-55
2022/09/14 14:25:16;;;;;;;8.63;4.90;;;17.70;99.90;;;;;;5018709;28;20026;-56
2022/09/14 14:28:04;;;;;;;8.02;4.53;;;17.50;99.90;;;;;;5020205;28;20053;-56
2022/09/14 14:30:52;;;;;;;8.15;4.00;;;17.20;99.90;;;;;;5007755;28;20028;-56
2022/09/14 14:33:45;;;;;;;8.48;3.30;;;17.10;99.90;;;;;;5034746;28;20030;-50
2022/09/14 14:36:31;;;;;;;7.88;3.85;;;17.10;99.90;;;;;;5017017;28;20079;-55
2022/09/14 14:39:21;;;;;;;17.40;10.55;;;17.00;99.90;;;;;;5008650;28;20038;-56
2022/09/14 14:42:11;;;;;;;20.70;8.38;;;17.20;99.90;;;;;;5021190;28;20029;-54
2022/09/14 14:44:59;;;;;;;8.02;4.97;;;17.30;99.90;;;;;;5019065;28;20026;-49
2022/09/14 14:47:46;;;;;;;8.35;5.05;;;17.30;99.90;;;;;;5031649;28;20044;-54
2022/09/14 14:50:34;;;;;;;9.68;4.10;;;17.30;99.90;;;;;;5018558;28;20536;-55